Sainte-Anne-De-Bellevue, Canada
Current Conditions -  °F | °C
As of 5:00 AM on Wednesday 22 Oct 2014 (Local Time) from CYUL Reporting Station
Overcast Overcast  
Wind Chill: 37°   Ceiling: 3500
Heat Index: 45°   Visibility: 15mi
Dew Point: 34°   Wind: 17mph
Humidity: 66%   Direction: 30°NNE
Pressure: 30.2"   Gusts: 24mph
Location:  45.48°N, 73.9°W
Report Text: CYUL 220900Z 03015G21KT 15SM OVC035 07/01 A3020 RMK SC8 SLP227
Loading
Personal Weather Stations






























Interactive Weather Map
Tropical Storm Tracking
New forecast layout! Learn more

10-Day Weather Forecast

Advertisements
Track Severe Weather on mobile